sensor_id;sensor_type;location;lat;lon;timestamp;pressure;altitude;pressure_sealevel;temperature;humidity
70976;BME280;58635;51.198;6.010;2023-07-31T00:01:21;100994.84;;;20.65;64.07
70976;BME280;58635;51.198;6.010;2023-07-31T00:03:47;101006.41;;;20.64;63.83
70976;BME280;58635;51.198;6.010;2023-07-31T00:06:14;101000.63;;;20.67;63.98
70976;BME280;58635;51.198;6.010;2023-07-31T00:08:40;100999.31;;;20.65;63.29
70976;BME280;58635;51.198;6.010;2023-07-31T00:11:06;100988.28;;;20.63;63.62
70976;BME280;58635;51.198;6.010;2023-07-31T00:13:33;100988.53;;;20.66;63.44
70976;BME280;58635;51.198;6.010;2023-07-31T00:15:59;100990.91;;;20.63;63.57
70976;BME280;58635;51.198;6.010;2023-07-31T00:18:25;100980.38;;;20.63;63.33
70976;BME280;58635;51.198;6.010;2023-07-31T00:20:52;100986.97;;;20.65;63.18
70976;BME280;58635;51.198;6.010;2023-07-31T00:23:18;100980.91;;;20.65;62.98
70976;BME280;58635;51.198;6.010;2023-07-31T00:25:45;100980.38;;;20.63;63.07
70976;BME280;58635;51.198;6.010;2023-07-31T00:28:11;100980.91;;;20.65;62.98
70976;BME280;58635;51.198;6.010;2023-07-31T00:30:37;100976.19;;;20.67;62.66
70976;BME280;58635;51.198;6.010;2023-07-31T00:33:04;100979.06;;;20.65;62.57
70976;BME280;58635;51.198;6.010;2023-07-31T00:35:30;100976.44;;;20.65;62.62
70976;BME280;58635;51.198;6.010;2023-07-31T00:37:58;100975.41;;;20.66;62.58
70976;BME280;58635;51.198;6.010;2023-07-31T00:40:24;100977.50;;;20.64;62.57
70976;BME280;58635;51.198;6.010;2023-07-31T00:42:50;100972.78;;;20.66;62.43
70976;BME280;58635;51.198;6.010;2023-07-31T00:45:17;100971.72;;;20.67;62.54
70976;BME280;58635;51.198;6.010;2023-07-31T00:47:43;100978.03;;;20.71;62.28
70976;BME280;58635;51.198;6.010;2023-07-31T00:50:10;100978.03;;;20.71;62.17
70976;BME280;58635;51.198;6.010;2023-07-31T00:52:36;100972.56;;;20.73;62.06
70976;BME280;58635;51.198;6.010;2023-07-31T00:55:03;100975.19;;;20.73;62.01
70976;BME280;58635;51.198;6.010;2023-07-31T00:57:31;100973.34;;;20.73;62.23
70976;BME280;58635;51.198;6.010;2023-07-31T00:59:58;100956.53;;;20.75;62.07
70976;BME280;58635;51.198;6.010;2023-07-31T01:02:24;100951.53;;;20.73;61.96
70976;BME280;58635;51.198;6.010;2023-07-31T01:04:51;100951.50;;;20.68;61.98
70976;BME280;58635;51.198;6.010;2023-07-31T01:07:31;100957.78;;;20.67;61.82
70976;BME280;58635;51.198;6.010;2023-07-31T01:10:20;100958.06;;;20.65;61.84
70976;BME280;58635;51.198;6.010;2023-07-31T01:12:48;100965.16;;;20.65;61.64
70976;BME280;58635;51.198;6.010;2023-07-31T01:15:16;100959.34;;;20.63;61.88
70976;BME280;58635;51.198;6.010;2023-07-31T01:17:43;100958.84;;;20.66;61.77
70976;BME280;58635;51.198;6.010;2023-07-31T01:20:26;100959.88;;;20.65;61.78
70976;BME280;58635;51.198;6.010;2023-07-31T01:29:10;100944.91;;;20.60;61.61
70976;BME280;58635;51.198;6.010;2023-07-31T01:31:41;100954.84;;;20.58;61.68
70976;BME280;58635;51.198;6.010;2023-07-31T01:34:09;100948.06;;;20.62;61.70
70976;BME280;58635;51.198;6.010;2023-07-31T01:36:36;100948.53;;;20.59;61.72
70976;BME280;58635;51.198;6.010;2023-07-31T01:39:03;100952.22;;;20.58;61.90
70976;BME280;58635;51.198;6.010;2023-07-31T01:41:30;100949.06;;;20.56;61.69
70976;BME280;58635;51.198;6.010;2023-07-31T01:43:56;100941.72;;;20.58;61.37
70976;BME280;58635;51.198;6.010;2023-07-31T01:46:22;100941.97;;;20.57;61.87
70976;BME280;58635;51.198;6.010;2023-07-31T01:48:49;100935.66;;;20.58;62.06
70976;BME280;58635;51.198;6.010;2023-07-31T01:51:15;100942.50;;;20.59;61.95
70976;BME280;58635;51.198;6.010;2023-07-31T01:53:42;100944.09;;;20.60;62.05
70976;BME280;58635;51.198;6.010;2023-07-31T01:56:08;100935.19;;;20.61;62.03
70976;BME280;58635;51.198;6.010;2023-07-31T01:58:34;100941.75;;;20.63;61.95
70976;BME280;58635;51.198;6.010;2023-07-31T02:01:01;100937.81;;;20.61;62.40
70976;BME280;58635;51.198;6.010;2023-07-31T02:03:27;100933.06;;;20.63;62.00
70976;BME280;58635;51.198;6.010;2023-07-31T02:05:54;100936.50;;;20.63;62.22
70976;BME280;58635;51.198;6.010;2023-07-31T02:08:20;100928.88;;;20.62;62.23
70976;BME280;58635;51.198;6.010;2023-07-31T02:10:47;100934.66;;;20.64;62.42
70976;BME280;58635;51.198;6.010;2023-07-31T02:13:13;100936.50;;;20.63;62.29
70976;BME280;58635;51.198;6.010;2023-07-31T02:15:39;100929.94;;;20.66;62.55
70976;BME280;58635;51.198;6.010;2023-07-31T02:18:06;100929.66;;;20.67;62.29
70976;BME280;58635;51.198;6.010;2023-07-31T02:20:35;100927.03;;;20.67;62.43
70976;BME280;58635;51.198;6.010;2023-07-31T02:23:02;100920.47;;;20.65;62.49
70976;BME280;58635;51.198;6.010;2023-07-31T02:25:29;100920.22;;;20.66;62.37
70976;BME280;58635;51.198;6.010;2023-07-31T02:27:55;100911.81;;;20.69;62.61
70976;BME280;58635;51.198;6.010;2023-07-31T02:30:22;100919.69;;;20.69;62.68
70976;BME280;58635;51.198;6.010;2023-07-31T02:32:48;100917.84;;;20.65;62.72
70976;BME280;58635;51.198;6.010;2023-07-31T02:35:15;100912.06;;;20.68;62.83
70976;BME280;58635;51.198;6.010;2023-07-31T02:37:42;100912.31;;;20.66;62.78
70976;BME280;58635;51.198;6.010;2023-07-31T02:40:09;100906.28;;;20.66;62.99
70976;BME280;58635;51.198;6.010;2023-07-31T02:42:35;100903.38;;;20.67;62.95
70976;BME280;58635;51.198;6.010;2023-07-31T02:45:02;100907.59;;;20.68;62.90
70976;BME280;58635;51.198;6.010;2023-07-31T02:47:28;100903.91;;;20.64;63.25
70976;BME280;58635;51.198;6.010;2023-07-31T02:49:54;100900.75;;;20.62;63.10
70976;BME280;58635;51.198;6.010;2023-07-31T02:52:22;100899.44;;;20.65;63.15
70976;BME280;58635;51.198;6.010;2023-07-31T02:54:48;100892.09;;;20.67;62.94
70976;BME280;58635;51.198;6.010;2023-07-31T02:57:14;100886.84;;;20.67;62.91
70976;BME280;58635;51.198;6.010;2023-07-31T02:59:42;100880.78;;;20.71;62.83
70976;BME280;58635;51.198;6.010;2023-07-31T03:02:08;100883.19;;;20.73;62.71
70976;BME280;58635;51.198;6.010;2023-07-31T03:04:35;100882.13;;;20.74;62.71
70976;BME280;58635;51.198;6.010;2023-07-31T03:07:01;100880.28;;;20.75;63.15
70976;BME280;58635;51.198;6.010;2023-07-31T03:09:27;100877.66;;;20.75;62.59
70976;BME280;58635;51.198;6.010;2023-07-31T03:11:54;100887.41;;;20.74;62.96
70976;BME280;58635;51.198;6.010;2023-07-31T03:14:20;100879.50;;;20.74;62.79
70976;BME280;58635;51.198;6.010;2023-07-31T03:16:47;100877.13;;;20.72;62.92
70976;BME280;58635;51.198;6.010;2023-07-31T03:19:13;100869.50;;;20.71;62.72
70976;BME280;58635;51.198;6.010;2023-07-31T03:21:49;100872.69;;;20.73;62.82
70976;BME280;58635;51.198;6.010;2023-07-31T03:24:15;100871.09;;;20.72;62.71
70976;BME280;58635;51.198;6.010;2023-07-31T03:26:41;100871.63;;;20.74;62.95
70976;BME280;58635;51.198;6.010;2023-07-31T03:29:08;100870.03;;;20.73;62.79
70976;BME280;58635;51.198;6.010;2023-07-31T03:31:34;100874.50;;;20.72;62.80
70976;BME280;58635;51.198;6.010;2023-07-31T03:34:01;100871.63;;;20.74;62.79
70976;BME280;58635;51.198;6.010;2023-07-31T03:36:27;100864.78;;;20.73;62.89
70976;BME280;58635;51.198;6.010;2023-07-31T03:38:54;100867.94;;;20.75;62.71
70976;BME280;58635;51.198;6.010;2023-07-31T03:41:20;100861.91;;;20.75;63.04
70976;BME280;58635;51.198;6.010;2023-07-31T03:43:49;100857.94;;;20.72;62.99
70976;BME280;58635;51.198;6.010;2023-07-31T03:46:18;100852.13;;;20.70;62.98
70976;BME280;58635;51.198;6.010;2023-07-31T03:48:44;100853.19;;;20.69;63.03
70976;BME280;58635;51.198;6.010;2023-07-31T03:51:11;100854.78;;;20.70;63.14
70976;BME280;58635;51.198;6.010;2023-07-31T03:53:37;100844.81;;;20.72;63.16
70976;BME280;58635;51.198;6.010;2023-07-31T03:56:04;100846.66;;;20.77;63.00
70976;BME280;58635;51.198;6.010;2023-07-31T03:58:30;100852.44;;;20.79;62.97
70976;BME280;58635;51.198;6.010;2023-07-31T04:00:57;100847.19;;;20.79;62.78
70976;BME280;58635;51.198;6.010;2023-07-31T04:03:23;100835.88;;;20.78;63.11
70976;BME280;58635;51.198;6.010;2023-07-31T04:05:49;100840.59;;;20.81;63.23
70976;BME280;58635;51.198;6.010;2023-07-31T04:08:16;100846.94;;;20.85;63.02
70976;BME280;58635;51.198;6.010;2023-07-31T04:10:42;100845.09;;;20.86;63.53
70976;BME280;58635;51.198;6.010;2023-07-31T04:13:09;100841.94;;;20.89;62.96
70976;BME280;58635;51.198;6.010;2023-07-31T04:15:35;100836.69;;;20.89;62.91
70976;BME280;58635;51.198;6.010;2023-07-31T04:18:01;100833.78;;;20.90;62.97
70976;BME280;58635;51.198;6.010;2023-07-31T04:20:28;100829.06;;;20.92;62.71
70976;BME280;58635;51.198;6.010;2023-07-31T04:22:54;100823.81;;;20.92;62.90
70976;BME280;58635;51.198;6.010;2023-07-31T04:25:20;100821.44;;;20.91;62.88
70976;BME280;58635;51.198;6.010;2023-07-31T04:27:47;100822.50;;;20.90;63.01
70976;BME280;58635;51.198;6.010;2023-07-31T04:30:13;100818.28;;;20.89;63.01
70976;BME280;58635;51.198;6.010;2023-07-31T04:32:40;100820.91;;;20.89;63.09
70976;BME280;58635;51.198;6.010;2023-07-31T04:35:06;100817.50;;;20.88;63.13
70976;BME280;58635;51.198;6.010;2023-07-31T04:37:33;100809.88;;;20.87;62.89
70976;BME280;58635;51.198;6.010;2023-07-31T04:39:59;100815.66;;;20.89;63.21
70976;BME280;58635;51.198;6.010;2023-07-31T04:42:26;100813.56;;;20.91;62.73
70976;BME280;58635;51.198;6.010;2023-07-31T04:44:52;100808.28;;;20.91;63.09
70976;BME280;58635;51.198;6.010;2023-07-31T04:47:19;100796.72;;;20.92;63.07
70976;BME280;58635;51.198;6.010;2023-07-31T04:49:45;100806.72;;;20.95;62.59
70976;BME280;58635;51.198;6.010;2023-07-31T04:52:12;100812.53;;;20.97;62.94
70976;BME280;58635;51.198;6.010;2023-07-31T04:54:38;100803.31;;;20.99;62.96
70976;BME280;58635;51.198;6.010;2023-07-31T04:57:05;100795.97;;;20.96;62.90
70976;BME280;58635;51.198;6.010;2023-07-31T04:59:31;100791.50;;;20.97;62.78
70976;BME280;58635;51.198;6.010;2023-07-31T05:01:58;100782.81;;;20.96;62.92
70976;BME280;58635;51.198;6.010;2023-07-31T05:04:24;100785.44;;;21.01;62.80
70976;BME280;58635;51.198;6.010;2023-07-31T05:06:51;100775.19;;;21.00;62.84
70976;BME280;58635;51.198;6.010;2023-07-31T05:09:17;100776.75;;;21.01;62.59
70976;BME280;58635;51.198;6.010;2023-07-31T05:11:44;100778.06;;;21.03;62.77
70976;BME280;58635;51.198;6.010;2023-07-31T05:14:10;100767.53;;;21.03;62.65
70976;BME280;58635;51.198;6.010;2023-07-31T05:16:36;100767.81;;;21.02;62.86
70976;BME280;58635;51.198;6.010;2023-07-31T05:19:03;100772.81;;;21.03;62.89
70976;BME280;58635;51.198;6.010;2023-07-31T05:21:30;100767.28;;;21.05;62.91
70976;BME280;58635;51.198;6.010;2023-07-31T05:23:56;100772.03;;;21.08;62.75
70976;BME280;58635;51.198;6.010;2023-07-31T05:26:25;100769.63;;;21.07;62.90
70976;BME280;58635;51.198;6.010;2023-07-31T05:28:51;100776.75;;;21.06;63.24
70976;BME280;58635;51.198;6.010;2023-07-31T05:31:17;100769.91;;;21.05;63.09
70976;BME280;58635;51.198;6.010;2023-07-31T05:33:44;100777.53;;;21.07;63.31
70976;BME280;58635;51.198;6.010;2023-07-31T05:36:10;100776.50;;;21.08;63.69
70976;BME280;58635;51.198;6.010;2023-07-31T05:38:37;100777.28;;;21.03;63.63
70976;BME280;58635;51.198;6.010;2023-07-31T05:41:03;100777.28;;;20.98;63.74
70976;BME280;58635;51.198;6.010;2023-07-31T05:43:30;100777.56;;;20.96;63.88
70976;BME280;58635;51.198;6.010;2023-07-31T05:45:56;100769.91;;;20.95;64.11
70976;BME280;58635;51.198;6.010;2023-07-31T05:48:23;100771.47;;;20.91;64.37
70976;BME280;58635;51.198;6.010;2023-07-31T05:50:49;100759.13;;;20.86;64.54
70976;BME280;58635;51.198;6.010;2023-07-31T05:53:15;100759.13;;;20.86;64.22
70976;BME280;58635;51.198;6.010;2023-07-31T05:55:42;100766.75;;;20.88;64.51
70976;BME280;58635;51.198;6.010;2023-07-31T05:58:08;100764.41;;;20.86;64.87
70976;BME280;58635;51.198;6.010;2023-07-31T06:00:35;100752.31;;;20.85;64.72
70976;BME280;58635;51.198;6.010;2023-07-31T06:03:01;100754.94;;;20.85;65.21
70976;BME280;58635;51.198;6.010;2023-07-31T06:05:27;100749.94;;;20.84;65.17
70976;BME280;58635;51.198;6.010;2023-07-31T06:07:56;100749.41;;;20.87;65.10
70976;BME280;58635;51.198;6.010;2023-07-31T06:10:23;100747.03;;;20.90;65.02
70976;BME280;58635;51.198;6.010;2023-07-31T06:12:49;100756.53;;;20.96;65.04
70976;BME280;58635;51.198;6.010;2023-07-31T06:15:16;100753.63;;;20.98;64.79
70976;BME280;58635;51.198;6.010;2023-07-31T06:17:44;100763.06;;;21.04;64.98
70976;BME280;58635;51.198;6.010;2023-07-31T06:20:10;100767.53;;;21.03;64.96
70976;BME280;58635;51.198;6.010;2023-07-31T06:22:37;100763.09;;;20.99;64.95
70976;BME280;58635;51.198;6.010;2023-07-31T06:25:04;100764.91;;;20.93;65.22
70976;BME280;58635;51.198;6.010;2023-07-31T06:27:30;100768.06;;;20.85;65.18
70976;BME280;58635;51.198;6.010;2023-07-31T06:29:57;100757.81;;;20.79;65.44
70976;BME280;58635;51.198;6.010;2023-07-31T06:32:23;100752.56;;;20.73;65.70
70976;BME280;58635;51.198;6.010;2023-07-31T06:34:50;100759.66;;;20.73;65.22
70976;BME280;58635;51.198;6.010;2023-07-31T06:37:16;100759.91;;;20.77;65.41
70976;BME280;58635;51.198;6.010;2023-07-31T06:39:42;100762.81;;;20.75;65.39
70976;BME280;58635;51.198;6.010;2023-07-31T06:42:09;100770.66;;;20.70;65.72
70976;BME280;58635;51.198;6.010;2023-07-31T06:44:35;100762.00;;;20.69;65.41
70976;BME280;58635;51.198;6.010;2023-07-31T06:47:02;100764.09;;;20.67;65.69
70976;BME280;58635;51.198;6.010;2023-07-31T06:49:28;100759.63;;;20.68;65.95
70976;BME280;58635;51.198;6.010;2023-07-31T06:51:54;100760.41;;;20.68;65.72
70976;BME280;58635;51.198;6.010;2023-07-31T06:54:21;100759.63;;;20.68;65.73
70976;BME280;58635;51.198;6.010;2023-07-31T06:56:47;100757.25;;;20.66;65.71
70976;BME280;58635;51.198;6.010;2023-07-31T06:59:14;100755.69;;;20.70;65.75
70976;BME280;58635;51.198;6.010;2023-07-31T07:01:40;100752.56;;;20.73;65.37
70976;BME280;58635;51.198;6.010;2023-07-31T07:04:06;100759.88;;;20.71;65.35
70976;BME280;58635;51.198;6.010;2023-07-31T07:06:35;100758.88;;;20.72;65.23
70976;BME280;58635;51.198;6.010;2023-07-31T07:09:02;100769.91;;;20.75;65.47
70976;BME280;58635;51.198;6.010;2023-07-31T07:11:29;100754.13;;;20.75;65.56
70976;BME280;58635;51.198;6.010;2023-07-31T07:13:55;100746.50;;;20.73;65.19
70976;BME280;58635;51.198;6.010;2023-07-31T07:16:22;100742.00;;;20.68;65.04
70976;BME280;58635;51.198;6.010;2023-07-31T07:18:48;100731.50;;;20.63;65.47
70976;BME280;58635;51.198;6.010;2023-07-31T07:21:15;100740.19;;;20.64;65.76
70976;BME280;58635;51.198;6.010;2023-07-31T07:23:42;100731.25;;;20.65;65.64
70976;BME280;58635;51.198;6.010;2023-07-31T07:26:09;100729.66;;;20.64;65.35
70976;BME280;58635;51.198;6.010;2023-07-31T07:28:35;100730.97;;;20.66;65.48
70976;BME280;58635;51.198;6.010;2023-07-31T07:31:03;100727.56;;;20.66;65.39
70976;BME280;58635;51.198;6.010;2023-07-31T07:33:29;100729.41;;;20.65;65.63
70976;BME280;58635;51.198;6.010;2023-07-31T07:36:00;100713.38;;;20.67;65.75
70976;BME280;58635;51.198;6.010;2023-07-31T07:38:27;100717.84;;;20.66;65.80
70976;BME280;58635;51.198;6.010;2023-07-31T07:40:53;100714.16;;;20.62;65.75
70976;BME280;58635;51.198;6.010;2023-07-31T07:43:20;100711.53;;;20.62;65.72
70976;BME280;58635;51.198;6.010;2023-07-31T07:46:05;100711.56;;;20.72;65.72
70976;BME280;58635;51.198;6.010;2023-07-31T07:48:47;100719.19;;;20.84;65.54
70976;BME280;58635;51.198;6.010;2023-07-31T07:51:14;100717.59;;;20.93;65.19
70976;BME280;58635;51.198;6.010;2023-07-31T07:53:40;100712.59;;;21.02;64.88
70976;BME280;58635;51.198;6.010;2023-07-31T07:56:06;100716.53;;;21.05;64.69
70976;BME280;58635;51.198;6.010;2023-07-31T07:58:33;100718.91;;;21.01;64.98
70976;BME280;58635;51.198;6.010;2023-07-31T08:00:59;100704.94;;;20.95;64.82
70976;BME280;58635;51.198;6.010;2023-07-31T08:03:26;100707.88;;;20.99;65.00
70976;BME280;58635;51.198;6.010;2023-07-31T08:05:52;100696.28;;;21.00;65.27
70976;BME280;58635;51.198;6.010;2023-07-31T08:08:18;100691.53;;;21.07;64.87
70976;BME280;58635;51.198;6.010;2023-07-31T08:10:46;100688.38;;;21.15;64.69
70976;BME280;58635;51.198;6.010;2023-07-31T08:13:12;100693.88;;;21.19;64.53
70976;BME280;58635;51.198;6.010;2023-07-31T08:15:41;100685.75;;;21.30;64.43
70976;BME280;58635;51.198;6.010;2023-07-31T08:18:07;100703.63;;;21.28;64.52
70976;BME280;58635;51.198;6.010;2023-07-31T08:20:34;100697.06;;;21.26;64.69
70976;BME280;58635;51.198;6.010;2023-07-31T08:23:00;100692.06;;;21.19;64.73
70976;BME280;58635;51.198;6.010;2023-07-31T08:25:26;100690.50;;;21.13;64.80
70976;BME280;58635;51.198;6.010;2023-07-31T08:27:53;100689.97;;;21.06;65.41
70976;BME280;58635;51.198;6.010;2023-07-31T08:30:20;100681.00;;;21.07;65.35
70976;BME280;58635;51.198;6.010;2023-07-31T08:32:49;100690.25;;;21.10;65.35
70976;BME280;58635;51.198;6.010;2023-07-31T08:35:16;100685.78;;;21.10;65.33
70976;BME280;58635;51.198;6.010;2023-07-31T08:37:42;100683.13;;;21.15;65.47
70976;BME280;58635;51.198;6.010;2023-07-31T08:40:09;100683.63;;;21.17;65.15
70976;BME280;58635;51.198;6.010;2023-07-31T08:42:46;100684.69;;;21.21;64.83
70976;BME280;58635;51.198;6.010;2023-07-31T08:45:19;100687.56;;;21.25;64.84
70976;BME280;58635;51.198;6.010;2023-07-31T08:47:50;100683.38;;;21.29;64.74
70976;BME280;58635;51.198;6.010;2023-07-31T08:50:18;100680.47;;;21.30;64.87
70976;BME280;58635;51.198;6.010;2023-07-31T08:52:46;100683.13;;;21.36;64.75
70976;BME280;58635;51.198;6.010;2023-07-31T08:55:13;100684.44;;;21.33;64.59
70976;BME280;58635;51.198;6.010;2023-07-31T08:57:41;100675.50;;;21.29;64.77
70976;BME280;58635;51.198;6.010;2023-07-31T09:00:10;100693.66;;;21.25;64.91
70976;BME280;58635;51.198;6.010;2023-07-31T09:05:12;100687.84;;;21.18;65.34
70976;BME280;58635;51.198;6.010;2023-07-31T09:07:39;100683.91;;;21.21;65.26
70976;BME280;58635;51.198;6.010;2023-07-31T09:10:06;100687.06;;;21.18;65.25
70976;BME280;58635;51.198;6.010;2023-07-31T09:12:33;100683.63;;;21.22;65.13
70976;BME280;58635;51.198;6.010;2023-07-31T09:15:00;100679.97;;;21.23;65.30
70976;BME280;58635;51.198;6.010;2023-07-31T09:19:57;100686.78;;;21.24;65.27
70976;BME280;58635;51.198;6.010;2023-07-31T09:22:35;100677.59;;;21.27;65.19
70976;BME280;58635;51.198;6.010;2023-07-31T09:25:23;100680.22;;;21.27;65.22
70976;BME280;58635;51.198;6.010;2023-07-31T09:27:53;100682.06;;;21.26;65.19
70976;BME280;58635;51.198;6.010;2023-07-31T09:30:20;100678.13;;;21.29;65.05
70976;BME280;58635;51.198;6.010;2023-07-31T09:32:48;100670.22;;;21.29;65.15
70976;BME280;58635;51.198;6.010;2023-07-31T09:35:18;100665.75;;;21.35;65.00
70976;BME280;58635;51.198;6.010;2023-07-31T09:37:54;100674.44;;;21.35;64.84
70976;BME280;58635;51.198;6.010;2023-07-31T09:43:04;100662.28;;;21.49;64.66
70976;BME280;58635;51.198;6.010;2023-07-31T09:45:35;100664.34;;;21.63;64.32
70976;BME280;58635;51.198;6.010;2023-07-31T09:48:12;100656.13;;;21.79;64.38
70976;BME280;58635;51.198;6.010;2023-07-31T09:50:40;100656.59;;;21.92;63.49
70976;BME280;58635;51.198;6.010;2023-07-31T09:53:08;100649.16;;;21.99;63.40
70976;BME280;58635;51.198;6.010;2023-07-31T09:55:36;100652.03;;;22.07;63.51
70976;BME280;58635;51.198;6.010;2023-07-31T09:58:12;100651.69;;;22.19;63.19
70976;BME280;58635;51.198;6.010;2023-07-31T10:00:40;100650.34;;;22.27;62.60
70976;BME280;58635;51.198;6.010;2023-07-31T10:03:08;100652.66;;;22.33;62.51
70976;BME280;58635;51.198;6.010;2023-07-31T10:05:40;100647.88;;;22.40;62.30
70976;BME280;58635;51.198;6.010;2023-07-31T10:08:09;100650.72;;;22.44;62.49
70976;BME280;58635;51.198;6.010;2023-07-31T10:10:36;100648.47;;;22.61;61.50
70976;BME280;58635;51.198;6.010;2023-07-31T10:13:04;100654.28;;;22.63;61.18
70976;BME280;58635;51.198;6.010;2023-07-31T10:15:32;100652.72;;;22.62;61.23
70976;BME280;58635;51.198;6.010;2023-07-31T10:18:00;100651.38;;;22.60;61.46
70976;BME280;58635;51.198;6.010;2023-07-31T10:20:27;100652.72;;;22.62;61.61
70976;BME280;58635;51.198;6.010;2023-07-31T10:22:56;100657.19;;;22.62;61.29
70976;BME280;58635;51.198;6.010;2023-07-31T10:25:23;100654.59;;;22.57;61.38
70976;BME280;58635;51.198;6.010;2023-07-31T10:27:50;100646.13;;;22.60;61.49
70976;BME280;58635;51.198;6.010;2023-07-31T10:30:22;100649.03;;;22.58;61.27
70976;BME280;58635;51.198;6.010;2023-07-31T10:32:51;100645.66;;;22.53;61.15
70976;BME280;58635;51.198;6.010;2023-07-31T10:35:20;100641.03;;;22.39;61.23
70976;BME280;58635;51.198;6.010;2023-07-31T10:37:48;100648.66;;;22.41;61.39
70976;BME280;58635;51.198;6.010;2023-07-31T10:40:19;100659.13;;;22.51;61.31
70976;BME280;58635;51.198;6.010;2023-07-31T10:42:53;100650.06;;;22.62;60.85
70976;BME280;58635;51.198;6.010;2023-07-31T10:45:43;100646.88;;;22.65;60.70
70976;BME280;58635;51.198;6.010;2023-07-31T10:48:18;100645.34;;;22.59;61.03
70976;BME280;58635;51.198;6.010;2023-07-31T10:50:55;100637.97;;;22.56;60.86
70976;BME280;58635;51.198;6.010;2023-07-31T10:53:24;100631.94;;;22.56;61.01
70976;BME280;58635;51.198;6.010;2023-07-31T10:55:51;100641.91;;;22.59;60.97
70976;BME280;58635;51.198;6.010;2023-07-31T10:58:21;100635.63;;;22.55;61.00
70976;BME280;58635;51.198;6.010;2023-07-31T11:00:48;100638.78;;;22.57;60.90
70976;BME280;58635;51.198;6.010;2023-07-31T11:03:18;100643.03;;;22.53;61.23
70976;BME280;58635;51.198;6.010;2023-07-31T11:08:28;100647.81;;;22.45;61.08
70976;BME280;58635;51.198;6.010;2023-07-31T11:13:40;100639.84;;;22.56;60.86
70976;BME280;58635;51.198;6.010;2023-07-31T11:16:07;100641.41;;;22.57;60.80
70976;BME280;58635;51.198;6.010;2023-07-31T11:18:34;100637.19;;;22.56;60.41
70976;BME280;58635;51.198;6.010;2023-07-31T11:21:01;100630.88;;;22.57;60.44
70976;BME280;58635;51.198;6.010;2023-07-31T11:23:27;100623.72;;;22.62;60.50
70976;BME280;58635;51.198;6.010;2023-07-31T11:25:59;100630.78;;;22.67;60.54
70976;BME280;58635;51.198;6.010;2023-07-31T11:28:25;100636.56;;;22.69;60.61
70976;BME280;58635;51.198;6.010;2023-07-31T11:30:51;100633.59;;;22.75;60.32
70976;BME280;58635;51.198;6.010;2023-07-31T11:33:18;100635.50;;;22.70;60.07
70976;BME280;58635;51.198;6.010;2023-07-31T11:35:48;100636.34;;;22.65;60.18
70976;BME280;58635;51.198;6.010;2023-07-31T11:40:49;100625.56;;;22.62;60.40
70976;BME280;58635;51.198;6.010;2023-07-31T11:43:15;100618.16;;;22.64;60.38
70976;BME280;58635;51.198;6.010;2023-07-31T11:45:49;100621.03;;;22.67;60.17
70976;BME280;58635;51.198;6.010;2023-07-31T11:48:36;100619.22;;;22.63;60.80
70976;BME280;58635;51.198;6.010;2023-07-31T11:51:05;100621.59;;;22.59;60.61
70976;BME280;58635;51.198;6.010;2023-07-31T11:56:04;100621.38;;;22.56;61.04
70976;BME280;58635;51.198;6.010;2023-07-31T11:58:34;100626.16;;;22.54;61.11
70976;BME280;58635;51.198;6.010;2023-07-31T12:01:01;100626.72;;;22.51;61.41
70976;BME280;58635;51.198;6.010;2023-07-31T12:03:28;100620.66;;;22.50;61.31
70976;BME280;58635;51.198;6.010;2023-07-31T12:05:54;100609.75;;;22.62;61.28
70976;BME280;58635;51.198;6.010;2023-07-31T12:08:22;100615.16;;;22.75;61.36
70976;BME280;58635;51.198;6.010;2023-07-31T12:10:53;100615.31;;;22.89;60.95
70976;BME280;58635;51.198;6.010;2023-07-31T12:13:25;100614.72;;;22.97;60.60
70976;BME280;58635;51.198;6.010;2023-07-31T12:15:56;100609.66;;;23.01;60.38
70976;BME280;58635;51.198;6.010;2023-07-31T12:18:25;100607.84;;;22.96;60.20
70976;BME280;58635;51.198;6.010;2023-07-31T12:20:59;100614.72;;;22.97;60.46
70976;BME280;58635;51.198;6.010;2023-07-31T12:23:27;100610.72;;;23.00;60.33
70976;BME280;58635;51.198;6.010;2023-07-31T12:26:14;100610.94;;;23.03;60.44
70976;BME280;58635;51.198;6.010;2023-07-31T12:28:46;100611.91;;;23.13;60.19
70976;BME280;58635;51.198;6.010;2023-07-31T12:31:15;100602.84;;;23.19;60.13
70976;BME280;58635;51.198;6.010;2023-07-31T12:33:43;100589.66;;;23.19;60.31
70976;BME280;58635;51.198;6.010;2023-07-31T12:36:12;100591.38;;;23.28;59.98
70976;BME280;58635;51.198;6.010;2023-07-31T12:38:40;100585.50;;;23.37;59.63
70976;BME280;58635;51.198;6.010;2023-07-31T12:41:07;100578.53;;;23.46;59.60
70976;BME280;58635;51.198;6.010;2023-07-31T12:43:35;100571.78;;;23.58;59.93
70976;BME280;58635;51.198;6.010;2023-07-31T12:46:02;100570.28;;;23.71;59.43
70976;BME280;58635;51.198;6.010;2023-07-31T12:48:30;100556.66;;;23.83;59.02
70976;BME280;58635;51.198;6.010;2023-07-31T12:50:56;100550.50;;;23.87;59.12
70976;BME280;58635;51.198;6.010;2023-07-31T12:53:23;100540.41;;;23.89;58.89
70976;BME280;58635;51.198;6.010;2023-07-31T12:55:49;100534.34;;;23.89;58.67
70976;BME280;58635;51.198;6.010;2023-07-31T12:58:16;100531.72;;;23.89;58.35
70976;BME280;58635;51.198;6.010;2023-07-31T13:00:42;100539.16;;;23.87;58.32
70976;BME280;58635;51.198;6.010;2023-07-31T13:03:09;100539.94;;;23.87;57.90
70976;BME280;58635;51.198;6.010;2023-07-31T13:05:35;100530.34;;;23.91;58.06
70976;BME280;58635;51.198;6.010;2023-07-31T13:08:02;100531.66;;;23.94;57.91
70976;BME280;58635;51.198;6.010;2023-07-31T13:10:28;100520.50;;;23.97;57.57
70976;BME280;58635;51.198;6.010;2023-07-31T13:12:56;100511.19;;;24.00;57.08
70976;BME280;58635;51.198;6.010;2023-07-31T13:15:22;100496.47;;;24.12;56.95
70976;BME280;58635;51.198;6.010;2023-07-31T13:17:49;100491.88;;;24.18;56.87